Time;durP1;ratioP1;P1;durP2;ratioP2;P2;SDS_P1;SDS_P2;PMS_P1;PMS_P2;Temp;Humidity;BMP_temperature;BMP_pressure;BME280_temperature;BME280_humidity;BME280_pressure;Samples;Min_cycle;Max_cycle;Signal;HPM_P1;HPM_P2
2022/09/02 00:01:38;;;;;;;1999.90;999.90;;;16.60;1.00;;;;;;5016163;28;20690;-66
2022/09/02 00:04:07;;;;;;;1999.90;999.90;;;16.50;1.00;;;;;;5016345;28;20206;-66
2022/09/02 00:06:36;;;;;;;1999.90;999.90;;;16.40;1.00;;;;;;5016544;28;20208;-66
2022/09/02 00:09:05;;;;;;;1999.90;999.90;;;16.30;1.00;;;;;;5015958;28;20217;-67
2022/09/02 00:11:34;;;;;;;1999.90;999.90;;;16.30;1.00;;;;;;5016118;28;20212;-67
2022/09/02 00:14:03;;;;;;;1999.90;999.90;;;16.30;1.00;;;;;;5016147;28;20207;-67
2022/09/02 00:16:30;;;;;;;1999.90;999.90;;;16.20;1.00;;;;;;5015820;28;20206;-67
2022/09/02 00:19:00;;;;;;;1999.90;999.90;;;16.20;1.00;;;;;;5016081;28;20261;-67
2022/09/02 00:21:27;;;;;;;1999.90;999.90;;;16.10;1.00;;;;;;5015996;28;20215;-66
2022/09/02 00:23:54;;;;;;;1999.90;999.90;;;16.10;1.00;;;;;;5016074;28;20211;-67
2022/09/02 00:26:22;;;;;;;1999.90;999.90;;;16.00;1.00;;;;;;5016017;28;20564;-67
2022/09/02 00:28:49;;;;;;;1999.90;999.90;;;16.00;1.00;;;;;;5015980;28;20552;-67
2022/09/02 00:31:16;;;;;;;1999.90;999.90;;;15.90;1.00;;;;;;5015817;28;20201;-67
2022/09/02 00:33:43;;;;;;;1999.90;999.90;;;15.90;1.00;;;;;;5015950;28;20204;-67
2022/09/02 00:36:12;;;;;;;1999.90;999.90;;;16.00;1.00;;;;;;5015478;28;20195;-68
2022/09/02 00:38:40;;;;;;;1999.90;999.90;;;15.90;1.00;;;;;;5015702;28;20198;-68
2022/09/02 00:41:10;;;;;;;1999.90;999.90;;;15.90;1.00;;;;;;5015587;28;20231;-67
2022/09/02 00:43:46;;;;;;;1999.90;999.90;;;15.80;1.00;;;;;;5015545;28;20227;-67
2022/09/02 00:46:16;;;;;;;1999.90;999.90;;;15.80;1.00;;;;;;5015635;28;20185;-67
2022/09/02 00:48:48;;;;;;;1999.90;999.90;;;15.80;1.00;;;;;;5015650;28;20185;-67
2022/09/02 00:51:16;;;;;;;1999.90;999.90;;;15.80;1.00;;;;;;5015527;28;20192;-67
2022/09/02 00:53:46;;;;;;;1999.90;999.90;;;15.80;1.00;;;;;;5014037;28;20581;-67
2022/09/02 00:56:20;;;;;;;1999.90;999.90;;;15.80;1.00;;;;;;5015526;28;20208;-67
2022/09/02 00:58:49;;;;;;;1999.90;999.90;;;15.80;1.00;;;;;;5015056;28;20286;-66
2022/09/02 01:01:17;;;;;;;1999.90;999.90;;;15.80;1.00;;;;;;5015223;28;20693;-66
2022/09/02 01:03:44;;;;;;;1999.90;999.90;;;15.80;1.00;;;;;;5014851;28;20231;-65
2022/09/02 01:06:14;;;;;;;1999.90;999.90;;;15.80;1.00;;;;;;5015166;28;20584;-66
2022/09/02 01:08:47;;;;;;;1999.90;999.90;;;15.80;1.00;;;;;;5014960;28;20246;-67
2022/09/02 01:11:17;;;;;;;1999.90;999.90;;;15.80;1.00;;;;;;5014761;28;20190;-67
2022/09/02 01:13:45;;;;;;;1999.90;999.90;;;15.80;1.00;;;;;;5014892;28;20582;-67
2022/09/02 01:16:23;;;;;;;1999.90;999.90;;;15.80;1.00;;;;;;5014815;28;20203;-67
2022/09/02 01:18:54;;;;;;;1999.90;999.90;;;15.80;1.00;;;;;;5015077;28;20188;-66
2022/09/02 01:21:23;;;;;;;1999.90;999.90;;;15.80;1.00;;;;;;5014965;28;20189;-66
2022/09/02 01:23:52;;;;;;;1999.90;999.90;;;15.80;1.00;;;;;;5014804;28;20205;-66
2022/09/02 01:26:19;;;;;;;1999.90;999.90;;;15.80;1.00;;;;;;5015002;28;20202;-67
2022/09/02 01:28:46;;;;;;;1999.90;999.90;;;15.70;1.00;;;;;;5014616;28;20664;-66
2022/09/02 01:31:13;;;;;;;1999.90;999.90;;;15.70;1.00;;;;;;5014537;28;20215;-66
2022/09/02 01:33:40;;;;;;;1999.90;999.90;;;15.70;1.00;;;;;;5014681;28;20193;-66
2022/09/02 01:36:08;;;;;;;1999.90;999.90;;;15.70;1.00;;;;;;5014741;28;20200;-67
2022/09/02 01:38:35;;;;;;;1999.90;999.90;;;15.70;1.00;;;;;;5014701;28;20300;-67
2022/09/02 01:41:03;;;;;;;1999.90;999.90;;;15.80;1.00;;;;;;5014503;28;20209;-67
2022/09/02 01:43:31;;;;;;;1999.90;999.90;;;15.80;1.00;;;;;;5014456;28;20222;-67
2022/09/02 01:45:59;;;;;;;1999.90;999.90;;;15.80;1.00;;;;;;5014254;28;20704;-67
2022/09/02 01:48:26;;;;;;;1999.90;999.90;;;15.70;1.00;;;;;;5014215;28;20614;-66
2022/09/02 01:50:56;;;;;;;1999.90;999.90;;;15.70;1.00;;;;;;5014166;28;20682;-67
2022/09/02 01:53:23;;;;;;;1999.90;999.90;;;15.70;1.00;;;;;;5014156;28;20205;-67
2022/09/02 01:55:50;;;;;;;1999.90;999.90;;;15.80;1.00;;;;;;5014260;28;20205;-67
2022/09/02 01:58:19;;;;;;;1999.90;999.90;;;15.70;1.00;;;;;;5013909;28;20278;-66
2022/09/02 02:00:46;;;;;;;1999.90;999.90;;;15.70;1.00;;;;;;5014244;28;20203;-66
2022/09/02 02:03:14;;;;;;;1999.90;999.90;;;15.80;1.00;;;;;;5014194;28;20211;-65
2022/09/02 02:05:42;;;;;;;1999.90;999.90;;;15.70;1.00;;;;;;5014005;28;20196;-66
2022/09/02 02:08:09;;;;;;;1999.90;999.90;;;15.80;1.00;;;;;;5013852;28;20696;-66
2022/09/02 02:10:36;;;;;;;1999.90;999.90;;;15.70;1.00;;;;;;5014015;28;20208;-67
2022/09/02 02:13:03;;;;;;;1999.90;999.90;;;15.70;1.00;;;;;;5014038;28;20207;-66
2022/09/02 02:15:32;;;;;;;1999.90;999.90;;;15.80;1.00;;;;;;5014222;28;20201;-66
2022/09/02 02:17:59;;;;;;;1999.90;999.90;;;15.80;1.00;;;;;;5013646;28;20724;-66
2022/09/02 02:20:26;;;;;;;1999.90;999.90;;;15.80;1.00;;;;;;5013912;28;20205;-67
2022/09/02 02:22:53;;;;;;;1999.90;999.90;;;15.80;1.00;;;;;;5013622;28;20197;-66
2022/09/02 02:25:21;;;;;;;1999.90;999.90;;;15.80;1.00;;;;;;5013792;28;20217;-67
2022/09/02 02:27:48;;;;;;;1999.90;999.90;;;15.90;1.00;;;;;;5013886;28;20197;-66
2022/09/02 02:30:16;;;;;;;1999.90;999.90;;;15.90;1.00;;;;;;5013473;28;20204;-66
2022/09/02 02:32:46;;;;;;;1999.90;999.90;;;15.90;1.00;;;;;;5013648;28;20210;-66
2022/09/02 02:35:15;;;;;;;1999.90;999.90;;;15.90;1.00;;;;;;5013329;28;20235;-67
2022/09/02 02:37:42;;;;;;;1999.90;999.90;;;15.90;1.00;;;;;;5013382;28;20206;-67
2022/09/02 02:40:11;;;;;;;1999.90;999.90;;;15.90;1.00;;;;;;5013484;28;20201;-67
2022/09/02 02:42:39;;;;;;;1999.90;999.90;;;15.90;1.00;;;;;;5013142;28;20203;-67
2022/09/02 02:45:08;;;;;;;1999.90;999.90;;;15.80;1.00;;;;;;5013401;28;20217;-67
2022/09/02 02:47:38;;;;;;;1999.90;999.90;;;15.80;1.00;;;;;;5013106;28;20209;-67
2022/09/02 02:50:09;;;;;;;1999.90;999.90;;;15.80;1.00;;;;;;5013331;28;20207;-67
2022/09/02 02:52:36;;;;;;;1999.90;999.90;;;15.80;1.00;;;;;;5012964;28;20296;-67
2022/09/02 02:55:05;;;;;;;1999.90;999.90;;;15.80;1.00;;;;;;5013279;28;20227;-68
2022/09/02 02:57:32;;;;;;;1999.90;999.90;;;15.80;1.00;;;;;;5012962;28;20247;-66
2022/09/02 03:00:05;;;;;;;1999.90;999.90;;;15.80;1.00;;;;;;5012907;28;20257;-66
2022/09/02 03:02:33;;;;;;;1999.90;999.90;;;15.80;1.00;;;;;;5013211;28;20665;-65
2022/09/02 03:05:00;;;;;;;1999.90;999.90;;;15.80;1.00;;;;;;5012778;28;20225;-66
2022/09/02 03:07:28;;;;;;;1999.90;999.90;;;15.80;1.00;;;;;;5013038;28;20211;-66
2022/09/02 03:09:55;;;;;;;1999.90;999.90;;;15.80;1.00;;;;;;5013078;28;20197;-67
2022/09/02 03:12:23;;;;;;;1999.90;999.90;;;15.80;1.00;;;;;;5013099;28;20209;-67
2022/09/02 03:14:51;;;;;;;1999.90;999.90;;;15.80;1.00;;;;;;5012626;28;20197;-66
2022/09/02 03:17:18;;;;;;;1999.90;999.90;;;15.80;1.00;;;;;;5011979;28;20263;-66
2022/09/02 03:19:45;;;;;;;1999.90;999.90;;;15.80;1.00;;;;;;5012575;28;20548;-67
2022/09/02 03:22:13;;;;;;;1999.90;999.90;;;15.80;1.00;;;;;;5012996;28;20203;-66
2022/09/02 03:24:41;;;;;;;1999.90;999.90;;;15.80;1.00;;;;;;5012528;28;20576;-67
2022/09/02 03:27:08;;;;;;;1999.90;999.90;;;15.80;1.00;;;;;;5013148;28;20205;-67
2022/09/02 03:29:35;;;;;;;1999.90;999.90;;;15.80;1.00;;;;;;5021794;28;20200;-67
2022/09/02 03:32:02;;;;;;;1999.90;999.90;;;15.80;1.00;;;;;;5022465;28;20676;-66
2022/09/02 03:34:31;;;;;;;1999.90;999.90;;;15.80;1.00;;;;;;5021097;28;20242;-67
2022/09/02 03:36:58;;;;;;;1999.90;999.90;;;15.80;1.00;;;;;;5020971;28;20250;-67
2022/09/02 03:39:25;;;;;;;1999.90;999.90;;;15.90;1.00;;;;;;5020876;28;20670;-67
2022/09/02 03:41:53;;;;;;;1999.90;999.90;;;15.90;1.00;;;;;;5022765;28;20202;-67
2022/09/02 03:44:21;;;;;;;1999.90;999.90;;;15.90;1.00;;;;;;5025067;28;20226;-67
2022/09/02 03:46:48;;;;;;;1999.90;999.90;;;15.90;1.00;;;;;;5032139;28;20662;-67
2022/09/02 03:49:15;;;;;;;1999.90;999.90;;;16.00;1.00;;;;;;5032353;28;20201;-67
2022/09/02 03:51:43;;;;;;;1999.90;999.90;;;16.10;1.00;;;;;;5032168;28;20202;-68
2022/09/02 03:54:11;;;;;;;1999.90;999.90;;;16.20;1.00;;;;;;5033095;28;20212;-69
2022/09/02 03:56:38;;;;;;;1999.90;999.90;;;16.30;1.00;;;;;;5031512;28;20197;-66
2022/09/02 03:59:06;;;;;;;1999.90;999.90;;;16.40;1.00;;;;;;5031140;28;20241;-65
2022/09/02 04:01:33;;;;;;;1999.90;999.90;;;16.40;1.00;;;;;;5032055;28;20202;-65
2022/09/02 04:04:01;;;;;;;1999.90;999.90;;;16.50;1.00;;;;;;5031855;28;20210;-65
2022/09/02 04:06:28;;;;;;;1999.90;999.90;;;16.50;1.00;;;;;;5031472;28;20254;-65
2022/09/02 04:08:55;;;;;;;1999.90;999.90;;;16.60;1.00;;;;;;5032202;28;20197;-66
2022/09/02 04:11:23;;;;;;;1999.90;999.90;;;16.70;1.00;;;;;;5031671;28;20212;-66
2022/09/02 04:13:52;;;;;;;1999.90;999.90;;;16.70;1.00;;;;;;5031681;28;20212;-68
2022/09/02 04:16:27;;;;;;;1999.90;999.90;;;16.70;1.00;;;;;;5031399;28;20243;-66
2022/09/02 04:18:55;;;;;;;1999.90;999.90;;;16.80;1.00;;;;;;5031822;28;20186;-66
2022/09/02 04:21:22;;;;;;;1999.90;999.90;;;16.90;1.00;;;;;;5031634;28;20242;-66
2022/09/02 04:23:51;;;;;;;1999.90;999.90;;;16.90;1.00;;;;;;5031923;28;20205;-66
2022/09/02 04:26:19;;;;;;;1999.90;999.90;;;16.90;1.00;;;;;;5031588;28;20311;-66
2022/09/02 04:28:46;;;;;;;1999.90;999.90;;;16.90;1.00;;;;;;5033874;28;20198;-66
2022/09/02 04:31:16;;;;;;;1999.90;999.90;;;17.00;1.00;;;;;;5035510;28;20714;-66
2022/09/02 04:33:45;;;;;;;1999.90;999.90;;;17.00;1.00;;;;;;5035686;28;20208;-65
2022/09/02 04:36:15;;;;;;;1999.90;999.90;;;17.00;1.00;;;;;;5035564;28;20194;-66
2022/09/02 04:38:42;;;;;;;1999.90;999.90;;;17.00;1.00;;;;;;5035282;28;20199;-66
2022/09/02 04:41:11;;;;;;;1999.90;999.90;;;17.10;1.00;;;;;;5035502;28;20248;-66
2022/09/02 04:43:39;;;;;;;1999.90;999.90;;;17.10;1.00;;;;;;5035433;28;20213;-66
2022/09/02 04:46:09;;;;;;;1999.90;999.90;;;17.10;1.00;;;;;;5035355;28;20204;-66
2022/09/02 04:48:36;;;;;;;1999.90;999.90;;;17.00;1.00;;;;;;5035109;28;20663;-66
2022/09/02 04:51:07;;;;;;;1999.90;999.90;;;17.00;1.00;;;;;;5034977;28;20199;-66
2022/09/02 04:53:34;;;;;;;1999.90;999.90;;;16.90;1.00;;;;;;5035314;28;20228;-67
2022/09/02 04:56:03;;;;;;;1999.90;999.90;;;16.90;1.00;;;;;;5034793;28;20201;-67
2022/09/02 04:58:31;;;;;;;1999.90;999.90;;;16.80;1.00;;;;;;5034613;28;20746;-66
2022/09/02 05:00:58;;;;;;;1999.90;999.90;;;16.80;1.00;;;;;;5035225;28;20220;-66
2022/09/02 05:03:26;;;;;;;1999.90;999.90;;;16.80;1.00;;;;;;5034974;28;20621;-64
2022/09/02 05:06:01;;;;;;;1999.90;999.90;;;16.80;1.00;;;;;;5034650;28;20727;-65
2022/09/02 05:08:30;;;;;;;1999.90;999.90;;;16.80;1.00;;;;;;5034997;28;20211;-66
2022/09/02 05:10:57;;;;;;;1999.90;999.90;;;16.80;1.00;;;;;;5034537;28;20203;-66
2022/09/02 05:13:25;;;;;;;1999.90;999.90;;;16.80;1.00;;;;;;5034912;28;20206;-69
2022/09/02 05:15:53;;;;;;;1999.90;999.90;;;16.90;1.00;;;;;;5034758;28;20198;-67
2022/09/02 05:18:20;;;;;;;1999.90;999.90;;;16.90;1.00;;;;;;5034911;28;20193;-67
2022/09/02 05:20:47;;;;;;;1999.90;999.90;;;16.90;1.00;;;;;;5034780;28;20197;-67
2022/09/02 05:23:17;;;;;;;1999.90;999.90;;;16.90;1.00;;;;;;5034846;28;20202;-65
2022/09/02 05:25:46;;;;;;;1999.90;999.90;;;17.00;1.00;;;;;;5034383;28;20208;-67
2022/09/02 05:28:13;;;;;;;1999.90;999.90;;;17.10;1.00;;;;;;5034306;28;20210;-66
2022/09/02 05:30:42;;;;;;;1999.90;999.90;;;17.20;1.00;;;;;;5034542;28;20213;-66
2022/09/02 05:33:10;;;;;;;1999.90;999.90;;;17.20;1.00;;;;;;5034253;28;20221;-65
2022/09/02 05:35:40;;;;;;;1999.90;999.90;;;17.20;1.00;;;;;;5034558;28;20211;-66
2022/09/02 05:38:08;;;;;;;1999.90;999.90;;;17.30;1.00;;;;;;5034168;28;20236;-67
2022/09/02 05:40:37;;;;;;;1999.90;999.90;;;17.30;1.00;;;;;;5033580;28;20202;-67
2022/09/02 05:43:05;;;;;;;1999.90;999.90;;;17.40;1.00;;;;;;5034049;28;20204;-66
2022/09/02 05:45:33;;;;;;;1999.90;999.90;;;17.50;1.00;;;;;;5034228;28;20215;-65
2022/09/02 05:49:04;;;;;;;1999.90;999.90;;;17.60;1.00;;;;;;5034300;28;20204;-66
2022/09/02 05:50:48;;;;;;;1999.90;999.90;;;17.70;1.00;;;;;;5033821;28;20214;-68
2022/09/02 05:53:15;;;;;;;1999.90;999.90;;;17.80;1.00;;;;;;5034182;28;20199;-67
2022/09/02 05:55:42;;;;;;;1999.90;999.90;;;17.90;1.00;;;;;;5033726;28;20199;-68
2022/09/02 05:58:11;;;;;;;1999.90;999.90;;;18.10;1.00;;;;;;5033657;28;20235;-63
2022/09/02 06:00:39;;;;;;;1999.90;999.90;;;18.20;1.00;;;;;;5033958;28;20204;-67
2022/09/02 06:03:06;;;;;;;1999.90;999.90;;;18.30;1.00;;;;;;5034023;28;20196;-65
2022/09/02 06:05:34;;;;;;;1999.90;999.90;;;18.40;1.00;;;;;;5033855;28;20212;-66
2022/09/02 06:08:01;;;;;;;1999.90;999.90;;;18.50;1.00;;;;;;5033641;28;21004;-69
2022/09/02 06:10:28;;;;;;;1999.90;999.90;;;18.60;1.00;;;;;;5033618;28;20251;-65
2022/09/02 06:12:56;;;;;;;1999.90;999.90;;;18.70;1.00;;;;;;5033550;28;20666;-66
2022/09/02 06:15:26;;;;;;;1999.90;999.90;;;18.80;1.00;;;;;;5033766;28;20199;-68
2022/09/02 06:17:58;;;;;;;1999.90;999.90;;;19.00;1.00;;;;;;5033721;28;20235;-65
2022/09/02 06:20:27;;;;;;;1999.90;999.90;;;19.30;1.00;;;;;;5033156;28;20667;-67
2022/09/02 06:22:55;;;;;;;1999.90;999.90;;;19.50;1.00;;;;;;5033380;28;20226;-67
2022/09/02 06:25:22;;;;;;;1999.90;999.90;;;19.90;1.00;;;;;;5033331;28;20216;-68
2022/09/02 06:27:49;;;;;;;1999.90;999.90;;;20.30;1.00;;;;;;5033599;28;20202;-68
2022/09/02 06:30:16;;;;;;;1999.90;999.90;;;20.60;1.00;;;;;;5033399;28;20207;-68
2022/09/02 06:32:44;;;;;;;1999.90;999.90;;;21.00;1.00;;;;;;5033151;28;20196;-67
2022/09/02 06:35:12;;;;;;;1999.90;999.90;;;20.90;1.00;;;;;;5033389;28;20253;-67
2022/09/02 06:37:40;;;;;;;1999.90;999.90;;;20.80;1.00;;;;;;5033077;28;20207;-68
2022/09/02 06:40:08;;;;;;;1999.90;999.90;;;20.90;1.00;;;;;;5032856;28;20196;-68
2022/09/02 06:42:35;;;;;;;1999.90;999.90;;;21.20;1.00;;;;;;5032775;28;20688;-67
2022/09/02 06:45:02;;;;;;;1999.90;999.90;;;21.30;1.00;;;;;;5032789;28;21033;-68
2022/09/02 06:47:30;;;;;;;1999.90;999.90;;;21.50;1.00;;;;;;5032970;28;20206;-69
2022/09/02 06:49:59;;;;;;;1999.90;999.90;;;21.70;1.00;;;;;;5032785;28;20219;-70
2022/09/02 06:52:26;;;;;;;1999.90;999.90;;;21.60;1.00;;;;;;5032756;28;20703;-70
2022/09/02 06:54:54;;;;;;;1999.90;999.90;;;22.10;1.00;;;;;;5032560;28;20230;-70
2022/09/02 06:57:21;;;;;;;1999.90;999.90;;;22.40;1.00;;;;;;5032839;28;20200;-70
2022/09/02 06:59:49;;;;;;;1999.90;999.90;;;22.70;1.00;;;;;;5032958;28;20188;-70
2022/09/02 07:02:16;;;;;;;1999.90;999.90;;;22.70;1.00;;;;;;5033150;28;20200;-69
2022/09/02 07:07:29;;;;;;;1999.90;999.90;;;22.50;1.00;;;;;;5032854;28;20189;-71
2022/09/02 07:09:56;;;;;;;1999.90;999.90;;;22.40;1.00;;;;;;5033023;28;20204;-71
2022/09/02 07:12:25;;;;;;;1999.90;999.90;;;22.10;1.00;;;;;;5032763;28;20204;-70
2022/09/02 07:14:53;;;;;;;1999.90;999.90;;;21.80;1.00;;;;;;5032687;28;20200;-70
2022/09/02 07:17:22;;;;;;;1999.90;999.90;;;21.60;1.00;;;;;;5032345;28;20680;-70
2022/09/02 07:19:49;;;;;;;1999.90;999.90;;;21.60;1.00;;;;;;5032674;28;20192;-70
2022/09/02 07:22:16;;;;;;;1999.90;999.90;;;21.40;1.00;;;;;;5032268;28;20197;-70
2022/09/02 07:24:45;;;;;;;1999.90;999.90;;;21.60;1.00;;;;;;5032270;28;20560;-70
2022/09/02 07:27:12;;;;;;;1999.90;999.90;;;22.40;1.00;;;;;;5032424;28;20216;-70
2022/09/02 07:29:40;;;;;;;1999.90;999.90;;;23.00;1.00;;;;;;5032253;28;20200;-70
2022/09/02 07:32:07;;;;;;;1999.90;999.90;;;23.20;1.00;;;;;;5032520;28;20201;-70
2022/09/02 07:34:34;;;;;;;1999.90;999.90;;;23.50;1.00;;;;;;5032524;28;20189;-69
2022/09/02 07:37:01;;;;;;;1999.90;999.90;;;22.90;1.00;;;;;;5032423;28;20195;-71
2022/09/02 07:39:28;;;;;;;1999.90;999.90;;;22.50;1.00;;;;;;5032150;28;20214;-71
2022/09/02 07:41:57;;;;;;;1999.90;999.90;;;22.50;1.00;;;;;;5032296;28;20203;-71
2022/09/02 07:44:24;;;;;;;1999.90;999.90;;;22.20;1.00;;;;;;5032348;28;20192;-70
2022/09/02 07:46:51;;;;;;;1999.90;999.90;;;22.10;1.00;;;;;;5032127;28;20231;-70
2022/09/02 07:49:19;;;;;;;1999.90;999.90;;;22.10;1.00;;;;;;5032012;28;20701;-71
2022/09/02 07:51:48;;;;;;;1999.90;999.90;;;22.10;1.00;;;;;;5032358;28;20196;-71
2022/09/02 07:54:18;;;;;;;1999.90;999.90;;;22.10;1.00;;;;;;5032206;28;20200;-71
2022/09/02 07:56:45;;;;;;;1999.90;999.90;;;22.10;1.00;;;;;;5031979;28;20535;-71
2022/09/02 07:59:14;;;;;;;1999.90;999.90;;;22.10;1.00;;;;;;5031897;28;20238;-70
2022/09/02 08:01:42;;;;;;;1999.90;999.90;;;22.10;1.00;;;;;;5032536;28;20253;-70
2022/09/02 08:04:09;;;;;;;1999.90;999.90;;;22.20;1.00;;;;;;5034927;28;20198;-69
2022/09/02 08:06:37;;;;;;;1999.90;999.90;;;22.00;1.00;;;;;;5036108;28;20222;-70
2022/09/02 08:09:09;;;;;;;1999.90;999.90;;;22.00;1.00;;;;;;5035909;28;20617;-71
2022/09/02 08:11:37;;;;;;;1999.90;999.90;;;22.20;1.00;;;;;;5036022;28;20184;-71
2022/09/02 08:14:04;;;;;;;1999.90;999.90;;;22.30;1.00;;;;;;5036324;28;20204;-70
2022/09/02 08:16:33;;;;;;;1999.90;999.90;;;22.40;1.00;;;;;;5035961;28;20199;-70
2022/09/02 08:19:00;;;;;;;1999.90;999.90;;;22.60;1.00;;;;;;5035578;28;20226;-70
2022/09/02 08:21:28;;;;;;;1999.90;999.90;;;22.80;1.00;;;;;;5035623;28;20692;-70
2022/09/02 08:23:56;;;;;;;1999.90;999.90;;;23.10;1.00;;;;;;5035529;28;20691;-70
2022/09/02 08:26:24;;;;;;;1999.90;999.90;;;23.00;1.00;;;;;;5035409;28;20703;-70
2022/09/02 08:28:51;;;;;;;1999.90;999.90;;;23.00;1.00;;;;;;5035479;28;20696;-71
2022/09/02 08:31:18;;;;;;;1999.90;999.90;;;23.10;1.00;;;;;;5035698;28;20193;-69
2022/09/02 08:33:46;;;;;;;1999.90;999.90;;;23.10;1.00;;;;;;5035745;28;20246;-68
2022/09/02 08:36:14;;;;;;;1999.90;999.90;;;23.40;1.00;;;;;;5035651;28;20201;-70
2022/09/02 08:38:41;;;;;;;1999.90;999.90;;;23.80;1.00;;;;;;5035320;28;20200;-70
2022/09/02 08:41:16;;;;;;;1999.90;999.90;;;24.70;1.00;;;;;;5035436;28;20230;-71
2022/09/02 08:43:44;;;;;;;1999.90;999.90;;;25.00;1.00;;;;;;5035728;28;20225;-71
2022/09/02 08:46:16;;;;;;;1999.90;999.90;;;25.50;1.00;;;;;;5035196;28;20685;-71
2022/09/02 08:48:49;;;;;;;1999.90;999.90;;;24.90;1.00;;;;;;5035455;28;20180;-71
2022/09/02 08:51:23;;;;;;;1999.90;999.90;;;24.20;1.00;;;;;;5035386;28;20191;-70
2022/09/02 08:53:54;;;;;;;1999.90;999.90;;;24.00;1.00;;;;;;5035308;28;20188;-71
2022/09/02 08:56:21;;;;;;;1999.90;999.90;;;24.00;1.00;;;;;;5034935;28;20177;-70
2022/09/02 08:58:51;;;;;;;1999.90;999.90;;;24.20;1.00;;;;;;5035016;28;20232;-70
2022/09/02 09:01:26;;;;;;;1999.90;999.90;;;24.40;1.00;;;;;;5034872;28;20542;-70
2022/09/02 09:04:11;;;;;;;1999.90;999.90;;;24.10;1.00;;;;;;5035164;28;20180;-70
2022/09/02 09:06:49;;;;;;;1999.90;999.90;;;24.00;1.00;;;;;;5035029;28;20261;-71
2022/09/02 09:09:28;;;;;;;1999.90;999.90;;;24.00;1.00;;;;;;5035046;28;20176;-71
2022/09/02 09:12:03;;;;;;;1999.90;999.90;;;24.40;1.00;;;;;;5034592;28;20193;-71
2022/09/02 09:14:35;;;;;;;1999.90;999.90;;;24.50;1.00;;;;;;5034009;28;20184;-71
2022/09/02 09:17:08;;;;;;;1999.90;999.90;;;23.90;1.00;;;;;;5034921;28;20181;-70
2022/09/02 09:19:46;;;;;;;1999.90;999.90;;;24.00;1.00;;;;;;5034851;28;20177;-70
2022/09/02 09:22:17;;;;;;;1999.90;999.90;;;24.20;1.00;;;;;;5034525;28;20637;-70
2022/09/02 09:24:47;;;;;;;1999.90;999.90;;;25.10;1.00;;;;;;5034369;28;20650;-70
2022/09/02 09:27:17;;;;;;;1999.90;999.90;;;25.70;1.00;;;;;;5034582;28;20216;-70
2022/09/02 09:29:44;;;;;;;1999.90;999.90;;;25.40;1.00;;;;;;5034720;28;20206;-70
2022/09/02 09:32:20;;;;;;;1999.90;999.90;;;25.50;1.00;;;;;;5034463;28;20203;-70
2022/09/02 09:35:07;;;;;;;1999.90;999.90;;;25.80;1.00;;;;;;5034618;28;20180;-70
2022/09/02 09:37:42;;;;;;;1999.90;999.90;;;25.90;1.00;;;;;;5034252;28;20645;-71
2022/09/02 09:40:24;;;;;;;1999.90;999.90;;;26.10;1.00;;;;;;5034050;28;20185;-71
2022/09/02 09:42:55;;;;;;;1999.90;999.90;;;26.50;1.00;;;;;;5034091;28;20544;-71
2022/09/02 09:45:32;;;;;;;1999.90;999.90;;;26.60;1.00;;;;;;5034028;28;20180;-70
2022/09/02 09:48:22;;;;;;;1999.90;999.90;;;26.70;1.00;;;;;;5034071;28;20204;-68
2022/09/02 09:51:11;;;;;;;1999.90;999.90;;;27.60;1.00;;;;;;5034498;28;20184;-70
2022/09/02 09:53:39;;;;;;;1999.90;999.90;;;27.70;1.00;;;;;;5033938;28;20199;-69
2022/09/02 09:56:22;;;;;;;1999.90;999.90;;;27.50;1.00;;;;;;5033833;28;20196;-70
2022/09/02 09:58:51;;;;;;;1999.90;999.90;;;27.20;1.00;;;;;;5033831;28;20224;-69
2022/09/02 10:01:19;;;;;;;1999.90;999.90;;;27.10;1.00;;;;;;5033722;28;20271;-69
2022/09/02 10:03:51;;;;;;;1999.90;999.90;;;27.40;1.00;;;;;;5033801;28;20665;-69
2022/09/02 10:06:21;;;;;;;1999.90;999.90;;;27.50;1.00;;;;;;5033799;28;20636;-70
2022/09/02 10:08:54;;;;;;;1999.90;999.90;;;28.10;1.00;;;;;;5034095;28;20187;-71
2022/09/02 10:11:23;;;;;;;1999.90;999.90;;;27.70;1.00;;;;;;5033630;28;20192;-70
2022/09/02 10:13:50;;;;;;;1999.90;999.90;;;27.30;1.00;;;;;;5033839;28;20212;-71
2022/09/02 10:16:41;;;;;;;1999.90;999.90;;;27.60;1.00;;;;;;5033678;28;20192;-70
2022/09/02 10:19:14;;;;;;;1999.90;999.90;;;27.60;1.00;;;;;;5033433;28;20589;-70
2022/09/02 10:22:14;;;;;;;1999.90;999.90;;;27.90;1.00;;;;;;5033621;28;20546;-70
2022/09/02 10:24:57;;;;;;;1999.90;999.90;;;28.30;1.00;;;;;;5033579;28;20193;-70
2022/09/02 10:27:36;;;;;;;1999.90;999.90;;;28.00;1.00;;;;;;5032951;28;20200;-70
2022/09/02 10:30:20;;;;;;;1999.90;999.90;;;28.10;1.00;;;;;;5033237;28;20576;-70
2022/09/02 10:33:05;;;;;;;1999.90;999.90;;;27.90;1.00;;;;;;5033522;28;20181;-70
2022/09/02 10:35:40;;;;;;;1999.90;999.90;;;27.40;1.00;;;;;;5033295;28;20261;-70
2022/09/02 10:38:21;;;;;;;1999.90;999.90;;;27.50;1.00;;;;;;5033087;28;20189;-71
2022/09/02 10:40:56;;;;;;;1999.90;999.90;;;27.60;1.00;;;;;;5032954;28;20545;-71
2022/09/02 10:43:34;;;;;;;1999.90;999.90;;;27.60;1.00;;;;;;5033236;28;20256;-70
2022/09/02 10:46:06;;;;;;;1999.90;999.90;;;27.90;1.00;;;;;;5033244;28;20188;-70
2022/09/02 10:48:47;;;;;;;1999.90;999.90;;;27.80;1.00;;;;;;5033134;28;20206;-70
2022/09/02 10:51:23;;;;;;;1999.90;999.90;;;27.90;1.00;;;;;;5033127;28;20190;-70
2022/09/02 10:54:09;;;;;;;1999.90;999.90;;;28.10;1.00;;;;;;5033035;28;20181;-71
2022/09/02 10:56:44;;;;;;;1999.90;999.90;;;28.00;1.00;;;;;;5033312;28;20190;-70
2022/09/02 10:59:16;;;;;;;1999.90;999.90;;;28.30;1.00;;;;;;5032825;28;20607;-69
2022/09/02 11:01:48;;;;;;;1999.90;999.90;;;28.30;1.00;;;;;;5032668;28;20181;-68
2022/09/02 11:04:21;;;;;;;1999.90;999.90;;;28.70;1.00;;;;;;5033127;28;20183;-70
2022/09/02 11:06:51;;;;;;;1999.90;999.90;;;28.90;1.00;;;;;;5032431;28;20696;-68
2022/09/02 11:09:29;;;;;;;1999.90;999.90;;;29.20;1.00;;;;;;5032401;28;20203;-69
2022/09/02 11:12:02;;;;;;;1999.90;999.90;;;29.60;1.00;;;;;;5032384;28;20238;-69
2022/09/02 11:14:35;;;;;;;1999.90;999.90;;;29.50;1.00;;;;;;5032792;28;20183;-68
2022/09/02 11:17:09;;;;;;;1999.90;999.90;;;28.70;1.00;;;;;;5032792;28;20184;-70
2022/09/02 11:19:42;;;;;;;1999.90;999.90;;;28.50;1.00;;;;;;5032779;28;20180;-68
2022/09/02 11:22:20;;;;;;;1999.90;999.90;;;28.10;1.00;;;;;;5032359;28;20547;-69
2022/09/02 11:24:55;;;;;;;1999.90;999.90;;;29.10;1.00;;;;;;5032648;28;20180;-68
2022/09/02 11:27:32;;;;;;;1999.90;999.90;;;28.50;1.00;;;;;;5032575;28;20214;-70
2022/09/02 11:30:03;;;;;;;1999.90;999.90;;;28.30;1.00;;;;;;5032367;28;20652;-68
2022/09/02 11:32:38;;;;;;;1999.90;999.90;;;28.70;1.00;;;;;;5032511;28;20185;-68
2022/09/02 11:35:10;;;;;;;1999.90;999.90;;;28.60;1.00;;;;;;5032532;28;20233;-69
2022/09/02 11:37:43;;;;;;;1999.90;999.90;;;29.20;1.00;;;;;;5031506;28;20591;-69
2022/09/02 11:40:18;;;;;;;1999.90;999.90;;;29.90;1.00;;;;;;5032447;28;20195;-69
2022/09/02 11:43:01;;;;;;;1999.90;999.90;;;30.30;1.00;;;;;;5032464;28;20187;-70
2022/09/02 11:45:40;;;;;;;1999.90;999.90;;;29.00;1.00;;;;;;5032614;28;20186;-68
2022/09/02 11:48:39;;;;;;;1999.90;999.90;;;29.20;1.00;;;;;;5032358;28;20208;-69
2022/09/02 11:51:27;;;;;;;1999.90;999.90;;;30.00;1.00;;;;;;5001992;28;20214;-70
2022/09/02 11:53:56;;;;;;;1999.90;999.90;;;29.30;1.00;;;;;;5032330;28;20195;-69
2022/09/02 11:56:29;;;;;;;1999.90;999.90;;;28.90;1.00;;;;;;5032153;28;20196;-70
2022/09/02 11:58:56;;;;;;;1999.90;999.90;;;29.10;1.00;;;;;;5031928;28;20564;-69
2022/09/02 12:01:30;;;;;;;1999.90;999.90;;;29.70;1.00;;;;;;5032042;28;20564;-68
2022/09/02 12:04:02;;;;;;;1999.90;999.90;;;29.40;1.00;;;;;;5032317;28;20275;-68
2022/09/02 12:06:29;;;;;;;1999.90;999.90;;;29.50;1.00;;;;;;5032222;28;20181;-68
2022/09/02 12:09:03;;;;;;;1999.90;999.90;;;30.30;1.00;;;;;;5031852;28;20696;-68
2022/09/02 12:11:46;;;;;;;1999.90;999.90;;;30.00;1.00;;;;;;5032028;28;20231;-70
2022/09/02 12:15:03;;;;;;;1999.90;999.90;;;30.70;1.00;;;;;;5032200;28;20181;-67
2022/09/02 12:18:09;;;;;;;1999.90;999.90;;;30.50;1.00;;;;;;4971002;28;20186;-68
2022/09/02 12:21:09;;;;;;;1999.90;999.90;;;30.50;1.00;;;;;;4970864;28;20186;-69
2022/09/02 12:24:18;;;;;;;1999.90;999.90;;;30.30;1.00;;;;;;4971104;28;20187;-69
2022/09/02 12:27:18;;;;;;;1999.90;999.90;;;30.80;1.00;;;;;;4970907;28;20182;-69
2022/09/02 12:29:45;;;;;;;1999.90;999.90;;;30.60;1.00;;;;;;4970656;28;20202;-70